sensor_id;sensor_type;location;lat;lon;timestamp;temperature;humidity
484;DHT22;228;48.922;12.198;2022-12-10T00:01:17;5.00;70.80
484;DHT22;228;48.922;12.198;2022-12-10T00:03:44;4.80;71.40
484;DHT22;228;48.922;12.198;2022-12-10T00:06:16;4.70;72.00
484;DHT22;228;48.922;12.198;2022-12-10T00:08:43;4.80;71.80
484;DHT22;228;48.922;12.198;2022-12-10T00:11:11;5.10;71.20
484;DHT22;228;48.922;12.198;2022-12-10T00:13:38;5.30;70.00
484;DHT22;228;48.922;12.198;2022-12-10T00:16:06;5.20;70.40
484;DHT22;228;48.922;12.198;2022-12-10T00:18:34;5.30;70.00
484;DHT22;228;48.922;12.198;2022-12-10T00:21:06;5.30;70.10
484;DHT22;228;48.922;12.198;2022-12-10T00:23:35;5.30;70.20
484;DHT22;228;48.922;12.198;2022-12-10T00:28:39;5.20;70.60
484;DHT22;228;48.922;12.198;2022-12-10T00:31:21;5.10;71.00
484;DHT22;228;48.922;12.198;2022-12-10T00:33:52;5.10;70.90
484;DHT22;228;48.922;12.198;2022-12-10T00:36:22;4.90;71.70
484;DHT22;228;48.922;12.198;2022-12-10T00:38:50;5.00;71.90
484;DHT22;228;48.922;12.198;2022-12-10T00:41:16;5.00;71.70
484;DHT22;228;48.922;12.198;2022-12-10T00:43:43;4.80;72.30
484;DHT22;228;48.922;12.198;2022-12-10T00:46:11;4.90;72.50
484;DHT22;228;48.922;12.198;2022-12-10T00:48:40;5.20;71.80
484;DHT22;228;48.922;12.198;2022-12-10T00:51:07;5.60;70.80
484;DHT22;228;48.922;12.198;2022-12-10T00:53:39;5.80;69.20
484;DHT22;228;48.922;12.198;2022-12-10T00:56:07;6.00;68.30
484;DHT22;228;48.922;12.198;2022-12-10T00:58:35;6.20;67.50
484;DHT22;228;48.922;12.198;2022-12-10T01:03:45;6.40;66.50
484;DHT22;228;48.922;12.198;2022-12-10T01:06:15;6.60;66.20
484;DHT22;228;48.922;12.198;2022-12-10T01:08:46;6.40;65.60
484;DHT22;228;48.922;12.198;2022-12-10T01:11:15;6.30;66.30
484;DHT22;228;48.922;12.198;2022-12-10T01:13:42;6.10;66.30
484;DHT22;228;48.922;12.198;2022-12-10T01:16:11;6.20;66.90
484;DHT22;228;48.922;12.198;2022-12-10T01:18:39;6.20;66.50
484;DHT22;228;48.922;12.198;2022-12-10T01:21:08;6.10;66.50
484;DHT22;228;48.922;12.198;2022-12-10T01:23:38;6.20;66.70
484;DHT22;228;48.922;12.198;2022-12-10T01:26:09;6.40;66.30
484;DHT22;228;48.922;12.198;2022-12-10T01:28:38;6.40;65.70
484;DHT22;228;48.922;12.198;2022-12-10T01:31:11;6.40;65.60
484;DHT22;228;48.922;12.198;2022-12-10T01:33:39;5.90;66.50
484;DHT22;228;48.922;12.198;2022-12-10T01:36:21;5.70;67.80
484;DHT22;228;48.922;12.198;2022-12-10T01:38:51;5.40;68.70
484;DHT22;228;48.922;12.198;2022-12-10T01:41:27;5.10;69.60
484;DHT22;228;48.922;12.198;2022-12-10T01:46:41;4.50;71.70
484;DHT22;228;48.922;12.198;2022-12-10T01:49:15;4.00;73.90
484;DHT22;228;48.922;12.198;2022-12-10T01:51:49;4.00;75.20
484;DHT22;228;48.922;12.198;2022-12-10T01:54:24;3.80;75.30
484;DHT22;228;48.922;12.198;2022-12-10T01:57:03;3.70;76.30
484;DHT22;228;48.922;12.198;2022-12-10T01:59:32;3.60;76.70
484;DHT22;228;48.922;12.198;2022-12-10T02:05:19;4.10;75.50
484;DHT22;228;48.922;12.198;2022-12-10T02:08:05;4.40;74.80
484;DHT22;228;48.922;12.198;2022-12-10T02:16:16;5.00;71.30
484;DHT22;228;48.922;12.198;2022-12-10T02:19:03;4.80;71.00
484;DHT22;228;48.922;12.198;2022-12-10T02:21:47;4.40;72.00
484;DHT22;228;48.922;12.198;2022-12-10T02:24:25;4.40;73.70
484;DHT22;228;48.922;12.198;2022-12-10T02:27:18;4.60;73.00
484;DHT22;228;48.922;12.198;2022-12-10T02:29:49;4.90;72.50
484;DHT22;228;48.922;12.198;2022-12-10T02:32:19;5.50;71.00
484;DHT22;228;48.922;12.198;2022-12-10T02:34:57;5.70;69.70
484;DHT22;228;48.922;12.198;2022-12-10T02:37:35;5.70;69.20
484;DHT22;228;48.922;12.198;2022-12-10T02:40:07;5.40;68.90
484;DHT22;228;48.922;12.198;2022-12-10T02:42:43;4.90;70.70
484;DHT22;228;48.922;12.198;2022-12-10T02:45:11;5.10;71.00
484;DHT22;228;48.922;12.198;2022-12-10T02:47:38;5.40;70.50
484;DHT22;228;48.922;12.198;2022-12-10T02:50:08;5.80;69.10
484;DHT22;228;48.922;12.198;2022-12-10T02:52:35;5.50;68.50
484;DHT22;228;48.922;12.198;2022-12-10T02:55:02;5.20;70.00
484;DHT22;228;48.922;12.198;2022-12-10T03:00:55;5.80;68.70
484;DHT22;228;48.922;12.198;2022-12-10T03:03:42;5.80;68.00
484;DHT22;228;48.922;12.198;2022-12-10T03:06:44;5.70;68.30
484;DHT22;228;48.922;12.198;2022-12-10T03:09:22;5.20;70.10
484;DHT22;228;48.922;12.198;2022-12-10T03:12:00;5.00;71.10
484;DHT22;228;48.922;12.198;2022-12-10T03:14:32;5.40;70.70
484;DHT22;228;48.922;12.198;2022-12-10T03:17:00;5.20;69.90
484;DHT22;228;48.922;12.198;2022-12-10T03:19:42;5.30;70.30
484;DHT22;228;48.922;12.198;2022-12-10T03:22:12;5.00;70.90
484;DHT22;228;48.922;12.198;2022-12-10T03:24:40;5.10;71.50
484;DHT22;228;48.922;12.198;2022-12-10T03:27:10;5.30;70.80
484;DHT22;228;48.922;12.198;2022-12-10T03:29:53;5.50;69.70
484;DHT22;228;48.922;12.198;2022-12-10T03:32:22;5.60;69.00
484;DHT22;228;48.922;12.198;2022-12-10T03:34:50;5.60;68.80
484;DHT22;228;48.922;12.198;2022-12-10T03:37:18;5.50;69.60
484;DHT22;228;48.922;12.198;2022-12-10T03:39:45;5.50;68.80
484;DHT22;228;48.922;12.198;2022-12-10T03:42:12;5.60;69.10
484;DHT22;228;48.922;12.198;2022-12-10T03:44:39;5.70;68.80
484;DHT22;228;48.922;12.198;2022-12-10T03:47:08;5.50;68.30
484;DHT22;228;48.922;12.198;2022-12-10T03:49:36;5.50;68.30
484;DHT22;228;48.922;12.198;2022-12-10T03:52:03;6.00;68.20
484;DHT22;228;48.922;12.198;2022-12-10T03:54:29;5.90;67.10
484;DHT22;228;48.922;12.198;2022-12-10T03:56:55;5.90;67.40
484;DHT22;228;48.922;12.198;2022-12-10T03:59:21;5.40;67.90
484;DHT22;228;48.922;12.198;2022-12-10T04:01:48;5.50;69.00
484;DHT22;228;48.922;12.198;2022-12-10T04:04:14;5.90;68.40
484;DHT22;228;48.922;12.198;2022-12-10T04:06:41;6.10;67.20
484;DHT22;228;48.922;12.198;2022-12-10T04:09:10;6.10;66.60
484;DHT22;228;48.922;12.198;2022-12-10T04:11:37;6.30;66.50
484;DHT22;228;48.922;12.198;2022-12-10T04:14:03;6.50;65.70
484;DHT22;228;48.922;12.198;2022-12-10T04:16:48;6.40;65.10
484;DHT22;228;48.922;12.198;2022-12-10T04:19:16;6.60;65.30
484;DHT22;228;48.922;12.198;2022-12-10T04:21:45;6.40;65.00
484;DHT22;228;48.922;12.198;2022-12-10T04:24:32;6.40;65.10
484;DHT22;228;48.922;12.198;2022-12-10T04:29:50;6.40;65.50
484;DHT22;228;48.922;12.198;2022-12-10T04:32:18;6.40;65.50
484;DHT22;228;48.922;12.198;2022-12-10T04:34:44;6.60;65.10
484;DHT22;228;48.922;12.198;2022-12-10T04:37:11;6.70;64.60
484;DHT22;228;48.922;12.198;2022-12-10T04:39:38;6.90;64.30
484;DHT22;228;48.922;12.198;2022-12-10T04:42:05;6.90;63.80
484;DHT22;228;48.922;12.198;2022-12-10T04:44:32;6.30;65.00
484;DHT22;228;48.922;12.198;2022-12-10T04:46:58;5.70;66.90
484;DHT22;228;48.922;12.198;2022-12-10T04:49:24;5.10;69.10
484;DHT22;228;48.922;12.198;2022-12-10T04:51:51;5.20;70.30
484;DHT22;228;48.922;12.198;2022-12-10T04:54:19;5.40;69.50
484;DHT22;228;48.922;12.198;2022-12-10T04:56:45;5.70;68.70
484;DHT22;228;48.922;12.198;2022-12-10T04:59:11;5.50;68.80
484;DHT22;228;48.922;12.198;2022-12-10T05:01:38;5.60;68.90
484;DHT22;228;48.922;12.198;2022-12-10T05:04:06;5.40;68.90
484;DHT22;228;48.922;12.198;2022-12-10T05:06:34;5.00;70.70
484;DHT22;228;48.922;12.198;2022-12-10T05:09:00;5.00;71.30
484;DHT22;228;48.922;12.198;2022-12-10T05:11:28;5.00;71.10
484;DHT22;228;48.922;12.198;2022-12-10T05:13:56;4.90;71.40
484;DHT22;228;48.922;12.198;2022-12-10T05:16:26;4.90;72.40
484;DHT22;228;48.922;12.198;2022-12-10T05:18:54;4.30;72.80
484;DHT22;228;48.922;12.198;2022-12-10T05:21:22;4.20;74.10
484;DHT22;228;48.922;12.198;2022-12-10T05:23:51;4.20;74.40
484;DHT22;228;48.922;12.198;2022-12-10T05:26:18;4.40;74.30
484;DHT22;228;48.922;12.198;2022-12-10T05:28:52;4.60;73.60
484;DHT22;228;48.922;12.198;2022-12-10T05:31:22;4.50;73.10
484;DHT22;228;48.922;12.198;2022-12-10T05:33:51;4.30;73.50
484;DHT22;228;48.922;12.198;2022-12-10T05:36:21;4.00;74.60
484;DHT22;228;48.922;12.198;2022-12-10T05:38:49;4.10;75.40
484;DHT22;228;48.922;12.198;2022-12-10T05:41:20;4.40;74.60
484;DHT22;228;48.922;12.198;2022-12-10T05:43:48;4.30;74.40
484;DHT22;228;48.922;12.198;2022-12-10T05:46:23;4.70;73.20
484;DHT22;228;48.922;12.198;2022-12-10T05:48:52;5.00;72.10
484;DHT22;228;48.922;12.198;2022-12-10T05:51:25;5.20;70.60
484;DHT22;228;48.922;12.198;2022-12-10T05:53:53;5.20;71.10
484;DHT22;228;48.922;12.198;2022-12-10T05:56:22;5.40;69.80
484;DHT22;228;48.922;12.198;2022-12-10T05:58:52;5.30;69.40
484;DHT22;228;48.922;12.198;2022-12-10T06:01:22;4.90;71.00
484;DHT22;228;48.922;12.198;2022-12-10T06:03:51;4.80;71.60
484;DHT22;228;48.922;12.198;2022-12-10T06:06:27;5.00;71.30
484;DHT22;228;48.922;12.198;2022-12-10T06:08:55;5.00;71.40
484;DHT22;228;48.922;12.198;2022-12-10T06:11:22;4.70;72.30
484;DHT22;228;48.922;12.198;2022-12-10T06:13:49;4.60;72.50
484;DHT22;228;48.922;12.198;2022-12-10T06:16:16;4.60;73.30
484;DHT22;228;48.922;12.198;2022-12-10T06:18:42;5.00;72.50
484;DHT22;228;48.922;12.198;2022-12-10T06:21:11;5.20;70.90
484;DHT22;228;48.922;12.198;2022-12-10T06:23:39;5.40;70.80
484;DHT22;228;48.922;12.198;2022-12-10T06:26:17;5.60;69.90
484;DHT22;228;48.922;12.198;2022-12-10T06:28:46;5.70;68.60
484;DHT22;228;48.922;12.198;2022-12-10T06:31:13;5.90;68.20
484;DHT22;228;48.922;12.198;2022-12-10T06:33:40;5.90;67.60
484;DHT22;228;48.922;12.198;2022-12-10T06:36:08;5.90;67.90
484;DHT22;228;48.922;12.198;2022-12-10T06:38:35;6.20;67.80
484;DHT22;228;48.922;12.198;2022-12-10T06:41:05;6.30;66.80
484;DHT22;228;48.922;12.198;2022-12-10T06:43:32;6.30;67.10
484;DHT22;228;48.922;12.198;2022-12-10T06:45:59;6.20;66.70
484;DHT22;228;48.922;12.198;2022-12-10T06:48:30;5.90;67.10
484;DHT22;228;48.922;12.198;2022-12-10T06:50:56;5.60;68.50
484;DHT22;228;48.922;12.198;2022-12-10T06:53:22;5.70;69.10
484;DHT22;228;48.922;12.198;2022-12-10T06:55:48;5.30;69.40
484;DHT22;228;48.922;12.198;2022-12-10T06:58:15;5.00;70.50
484;DHT22;228;48.922;12.198;2022-12-10T07:00:41;5.20;70.90
484;DHT22;228;48.922;12.198;2022-12-10T07:03:07;5.20;71.20
484;DHT22;228;48.922;12.198;2022-12-10T07:05:33;5.00;71.10
484;DHT22;228;48.922;12.198;2022-12-10T07:07:59;4.90;71.60
484;DHT22;228;48.922;12.198;2022-12-10T07:10:26;5.00;71.60
484;DHT22;228;48.922;12.198;2022-12-10T07:12:52;4.80;71.80
484;DHT22;228;48.922;12.198;2022-12-10T07:15:18;4.60;73.00
484;DHT22;228;48.922;12.198;2022-12-10T07:17:44;4.70;72.10
484;DHT22;228;48.922;12.198;2022-12-10T07:20:10;4.90;72.30
484;DHT22;228;48.922;12.198;2022-12-10T07:22:37;5.10;71.30
484;DHT22;228;48.922;12.198;2022-12-10T07:25:03;4.90;71.80
484;DHT22;228;48.922;12.198;2022-12-10T07:27:30;4.90;71.80
484;DHT22;228;48.922;12.198;2022-12-10T07:29:57;4.80;71.70
484;DHT22;228;48.922;12.198;2022-12-10T07:32:23;4.90;72.10
484;DHT22;228;48.922;12.198;2022-12-10T07:34:49;5.10;71.30
484;DHT22;228;48.922;12.198;2022-12-10T07:37:15;5.10;70.60
484;DHT22;228;48.922;12.198;2022-12-10T07:39:41;5.30;71.00
484;DHT22;228;48.922;12.198;2022-12-10T07:42:08;5.00;70.50
484;DHT22;228;48.922;12.198;2022-12-10T07:44:37;4.80;72.20
484;DHT22;228;48.922;12.198;2022-12-10T07:47:03;4.80;72.30
484;DHT22;228;48.922;12.198;2022-12-10T07:49:30;4.80;72.40
484;DHT22;228;48.922;12.198;2022-12-10T07:51:56;5.20;71.50
484;DHT22;228;48.922;12.198;2022-12-10T07:54:22;5.60;69.70
484;DHT22;228;48.922;12.198;2022-12-10T07:56:48;5.80;69.20
484;DHT22;228;48.922;12.198;2022-12-10T07:59:14;6.00;68.30
484;DHT22;228;48.922;12.198;2022-12-10T08:01:41;6.30;67.10
484;DHT22;228;48.922;12.198;2022-12-10T08:04:07;6.40;66.80
484;DHT22;228;48.922;12.198;2022-12-10T08:06:33;6.20;66.10
484;DHT22;228;48.922;12.198;2022-12-10T08:08:59;6.00;66.90
484;DHT22;228;48.922;12.198;2022-12-10T08:11:26;5.70;68.30
484;DHT22;228;48.922;12.198;2022-12-10T08:13:52;5.10;70.20
484;DHT22;228;48.922;12.198;2022-12-10T08:16:21;4.80;71.80
484;DHT22;228;48.922;12.198;2022-12-10T08:18:51;4.50;73.20
484;DHT22;228;48.922;12.198;2022-12-10T08:21:20;4.80;73.30
484;DHT22;228;48.922;12.198;2022-12-10T08:23:48;4.60;73.60
484;DHT22;228;48.922;12.198;2022-12-10T08:26:18;4.40;74.50
484;DHT22;228;48.922;12.198;2022-12-10T08:28:48;4.10;74.20
484;DHT22;228;48.922;12.198;2022-12-10T08:31:16;4.10;75.60
484;DHT22;228;48.922;12.198;2022-12-10T08:33:43;3.70;76.40
484;DHT22;228;48.922;12.198;2022-12-10T08:36:15;3.70;77.10
484;DHT22;228;48.922;12.198;2022-12-10T08:38:42;3.80;77.00
484;DHT22;228;48.922;12.198;2022-12-10T08:41:14;3.60;77.00
484;DHT22;228;48.922;12.198;2022-12-10T08:43:43;4.10;77.80
484;DHT22;228;48.922;12.198;2022-12-10T08:46:11;4.30;75.80
484;DHT22;228;48.922;12.198;2022-12-10T08:48:38;4.20;74.50
484;DHT22;228;48.922;12.198;2022-12-10T08:51:05;4.40;75.10
484;DHT22;228;48.922;12.198;2022-12-10T08:53:33;4.20;74.30
484;DHT22;228;48.922;12.198;2022-12-10T08:56:00;4.10;75.50
484;DHT22;228;48.922;12.198;2022-12-10T08:58:27;4.40;75.50
484;DHT22;228;48.922;12.198;2022-12-10T09:00:53;4.30;74.50
484;DHT22;228;48.922;12.198;2022-12-10T09:03:19;4.50;73.60
484;DHT22;228;48.922;12.198;2022-12-10T09:05:45;4.80;73.30
484;DHT22;228;48.922;12.198;2022-12-10T09:08:12;4.50;73.30
484;DHT22;228;48.922;12.198;2022-12-10T09:10:40;4.30;74.00
484;DHT22;228;48.922;12.198;2022-12-10T09:13:06;4.30;74.80
484;DHT22;228;48.922;12.198;2022-12-10T09:15:33;4.40;74.80
484;DHT22;228;48.922;12.198;2022-12-10T09:17:59;4.80;74.20
484;DHT22;228;48.922;12.198;2022-12-10T09:20:25;5.00;71.90
484;DHT22;228;48.922;12.198;2022-12-10T09:22:51;5.10;71.30
484;DHT22;228;48.922;12.198;2022-12-10T09:25:18;4.90;71.90
484;DHT22;228;48.922;12.198;2022-12-10T09:27:47;4.50;72.40
484;DHT22;228;48.922;12.198;2022-12-10T09:30:14;4.40;74.10
484;DHT22;228;48.922;12.198;2022-12-10T09:32:40;4.30;73.70
484;DHT22;228;48.922;12.198;2022-12-10T09:35:07;4.20;73.70
484;DHT22;228;48.922;12.198;2022-12-10T09:37:33;4.40;74.30
484;DHT22;228;48.922;12.198;2022-12-10T09:39:59;4.20;74.40
484;DHT22;228;48.922;12.198;2022-12-10T09:47:52;3.30;77.60
484;DHT22;228;48.922;12.198;2022-12-10T09:50:31;3.10;78.60
484;DHT22;228;48.922;12.198;2022-12-10T09:53:02;3.30;78.40
484;DHT22;228;48.922;12.198;2022-12-10T09:55:37;3.50;78.00
484;DHT22;228;48.922;12.198;2022-12-10T09:58:19;3.50;77.10
484;DHT22;228;48.922;12.198;2022-12-10T10:00:51;3.80;76.80
484;DHT22;228;48.922;12.198;2022-12-10T10:03:21;3.90;75.30
484;DHT22;228;48.922;12.198;2022-12-10T10:05:50;3.90;75.50
484;DHT22;228;48.922;12.198;2022-12-10T10:08:34;3.80;75.50
484;DHT22;228;48.922;12.198;2022-12-10T10:11:04;4.20;75.90
484;DHT22;228;48.922;12.198;2022-12-10T10:19:01;5.50;71.00
484;DHT22;228;48.922;12.198;2022-12-10T10:21:36;5.80;68.60
484;DHT22;228;48.922;12.198;2022-12-10T10:24:05;5.90;67.90
484;DHT22;228;48.922;12.198;2022-12-10T10:26:33;5.70;68.00
484;DHT22;228;48.922;12.198;2022-12-10T10:29:02;5.60;68.50
484;DHT22;228;48.922;12.198;2022-12-10T10:31:32;6.00;68.20
484;DHT22;228;48.922;12.198;2022-12-10T10:34:05;5.60;67.90
484;DHT22;228;48.922;12.198;2022-12-10T10:36:38;5.50;69.90
484;DHT22;228;48.922;12.198;2022-12-10T10:41:47;5.40;68.90
484;DHT22;228;48.922;12.198;2022-12-10T10:44:20;5.30;69.70
484;DHT22;228;48.922;12.198;2022-12-10T10:46:50;4.90;71.00
484;DHT22;228;48.922;12.198;2022-12-10T10:49:28;4.70;71.80
484;DHT22;228;48.922;12.198;2022-12-10T10:52:14;4.70;72.80
484;DHT22;228;48.922;12.198;2022-12-10T10:54:46;4.70;72.70
484;DHT22;228;48.922;12.198;2022-12-10T11:00:21;5.20;71.60
484;DHT22;228;48.922;12.198;2022-12-10T11:02:50;5.30;70.90
484;DHT22;228;48.922;12.198;2022-12-10T11:05:23;5.20;70.70
484;DHT22;228;48.922;12.198;2022-12-10T11:10:26;5.20;71.50
484;DHT22;228;48.922;12.198;2022-12-10T11:12:58;5.60;70.40
484;DHT22;228;48.922;12.198;2022-12-10T11:15:38;6.10;68.70
484;DHT22;228;48.922;12.198;2022-12-10T11:21:10;6.00;68.20
484;DHT22;228;48.922;12.198;2022-12-10T11:23:45;5.60;67.90
484;DHT22;228;48.922;12.198;2022-12-10T11:35:19;5.80;66.30
484;DHT22;228;48.922;12.198;2022-12-10T11:47:03;7.20;64.10
484;DHT22;228;48.922;12.198;2022-12-10T11:55:35;6.40;64.20
484;DHT22;228;48.922;12.198;2022-12-10T11:58:46;6.70;65.20
484;DHT22;228;48.922;12.198;2022-12-10T12:13:08;5.30;70.00
484;DHT22;228;48.922;12.198;2022-12-10T12:16:07;5.60;69.70
484;DHT22;228;48.922;12.198;2022-12-10T12:21:50;6.70;66.10
484;DHT22;228;48.922;12.198;2022-12-10T12:24:22;6.90;65.10
484;DHT22;228;48.922;12.198;2022-12-10T12:33:04;6.10;68.00
484;DHT22;228;48.922;12.198;2022-12-10T12:35:58;6.10;67.60
484;DHT22;228;48.922;12.198;2022-12-10T12:40:58;6.00;66.40
484;DHT22;228;48.922;12.198;2022-12-10T12:46:04;6.20;68.00
484;DHT22;228;48.922;12.198;2022-12-10T12:48:58;6.80;66.70
484;DHT22;228;48.922;12.198;2022-12-10T12:51:34;6.50;64.40
484;DHT22;228;48.922;12.198;2022-12-10T12:54:04;6.60;66.00
484;DHT22;228;48.922;12.198;2022-12-10T12:57:00;6.60;65.30
484;DHT22;228;48.922;12.198;2022-12-10T12:59:54;6.40;65.30
484;DHT22;228;48.922;12.198;2022-12-10T13:05:35;6.20;66.20
484;DHT22;228;48.922;12.198;2022-12-10T13:14:28;6.30;66.10
484;DHT22;228;48.922;12.198;2022-12-10T13:16:47;6.60;65.50
484;DHT22;228;48.922;12.198;2022-12-10T13:25:14;6.10;65.60
484;DHT22;228;48.922;12.198;2022-12-10T13:27:53;5.80;67.50
484;DHT22;228;48.922;12.198;2022-12-10T13:30:34;5.70;68.00
484;DHT22;228;48.922;12.198;2022-12-10T13:33:18;5.10;69.80
484;DHT22;228;48.922;12.198;2022-12-10T13:35:58;5.10;70.30
484;DHT22;228;48.922;12.198;2022-12-10T13:38:27;4.60;71.00
484;DHT22;228;48.922;12.198;2022-12-10T13:41:05;4.50;72.00
484;DHT22;228;48.922;12.198;2022-12-10T13:43:58;5.10;71.00
484;DHT22;228;48.922;12.198;2022-12-10T13:46:51;5.50;69.00
484;DHT22;228;48.922;12.198;2022-12-10T13:49:25;6.00;67.50
484;DHT22;228;48.922;12.198;2022-12-10T13:52:03;6.00;66.90
484;DHT22;228;48.922;12.198;2022-12-10T13:54:59;5.50;67.50
484;DHT22;228;48.922;12.198;2022-12-10T13:57:45;5.10;68.80
484;DHT22;228;48.922;12.198;2022-12-10T14:03:44;4.80;71.00
484;DHT22;228;48.922;12.198;2022-12-10T14:06:37;5.00;70.00
484;DHT22;228;48.922;12.198;2022-12-10T14:09:30;5.10;68.70
484;DHT22;228;48.922;12.198;2022-12-10T14:12:04;5.00;68.70
484;DHT22;228;48.922;12.198;2022-12-10T14:14:48;5.10;68.30
484;DHT22;228;48.922;12.198;2022-12-10T14:17:20;5.20;69.30
484;DHT22;228;48.922;12.198;2022-12-10T14:19:51;5.20;68.50
484;DHT22;228;48.922;12.198;2022-12-10T14:22:49;5.30;68.70
484;DHT22;228;48.922;12.198;2022-12-10T14:25:20;5.20;69.80
484;DHT22;228;48.922;12.198;2022-12-10T14:27:52;4.70;71.00
484;DHT22;228;48.922;12.198;2022-12-10T14:30:22;4.70;72.20
484;DHT22;228;48.922;12.198;2022-12-10T14:32:51;4.90;72.10
484;DHT22;228;48.922;12.198;2022-12-10T14:35:22;4.80;71.70
484;DHT22;228;48.922;12.198;2022-12-10T14:37:51;4.50;72.00
484;DHT22;228;48.922;12.198;2022-12-10T14:40:30;4.50;72.00
484;DHT22;228;48.922;12.198;2022-12-10T14:43:17;4.60;72.10
484;DHT22;228;48.922;12.198;2022-12-10T14:45:51;4.70;73.00
484;DHT22;228;48.922;12.198;2022-12-10T14:48:19;4.60;71.80
484;DHT22;228;48.922;12.198;2022-12-10T14:50:46;4.50;71.60
484;DHT22;228;48.922;12.198;2022-12-10T14:53:16;4.40;71.90
484;DHT22;228;48.922;12.198;2022-12-10T14:55:50;4.20;72.30
484;DHT22;228;48.922;12.198;2022-12-10T15:00:57;4.00;74.70
484;DHT22;228;48.922;12.198;2022-12-10T15:03:39;3.80;75.90
484;DHT22;228;48.922;12.198;2022-12-10T15:06:16;3.80;76.10
484;DHT22;228;48.922;12.198;2022-12-10T15:08:43;3.90;76.60
484;DHT22;228;48.922;12.198;2022-12-10T15:11:16;3.80;76.50
484;DHT22;228;48.922;12.198;2022-12-10T15:13:48;3.70;77.00
484;DHT22;228;48.922;12.198;2022-12-10T15:16:41;3.80;77.90
484;DHT22;228;48.922;12.198;2022-12-10T15:19:23;3.80;77.90
484;DHT22;228;48.922;12.198;2022-12-10T15:22:00;3.70;78.10
484;DHT22;228;48.922;12.198;2022-12-10T15:24:36;3.90;78.00
484;DHT22;228;48.922;12.198;2022-12-10T15:27:34;3.90;77.90
484;DHT22;228;48.922;12.198;2022-12-10T15:30:21;3.60;78.40
484;DHT22;228;48.922;12.198;2022-12-10T15:32:48;3.60;79.00
484;DHT22;228;48.922;12.198;2022-12-10T15:35:15;3.90;79.60
484;DHT22;228;48.922;12.198;2022-12-10T15:37:41;4.00;79.00
484;DHT22;228;48.922;12.198;2022-12-10T15:40:40;4.00;78.40
484;DHT22;228;48.922;12.198;2022-12-10T15:43:25;3.90;79.10
484;DHT22;228;48.922;12.198;2022-12-10T15:45:56;4.00;79.00
484;DHT22;228;48.922;12.198;2022-12-10T15:48:25;3.70;80.10
484;DHT22;228;48.922;12.198;2022-12-10T15:50:54;3.40;81.20
484;DHT22;228;48.922;12.198;2022-12-10T15:53:25;3.40;82.30
484;DHT22;228;48.922;12.198;2022-12-10T15:55:53;3.60;81.90
484;DHT22;228;48.922;12.198;2022-12-10T15:58:20;3.80;80.50
484;DHT22;228;48.922;12.198;2022-12-10T16:00:46;3.60;81.60
484;DHT22;228;48.922;12.198;2022-12-10T16:03:17;3.90;81.50
484;DHT22;228;48.922;12.198;2022-12-10T16:05:44;4.30;79.20
484;DHT22;228;48.922;12.198;2022-12-10T16:08:23;4.50;77.90
484;DHT22;228;48.922;12.198;2022-12-10T16:10:56;4.60;77.40
484;DHT22;228;48.922;12.198;2022-12-10T16:13:26;4.30;77.40
484;DHT22;228;48.922;12.198;2022-12-10T16:16:05;3.90;78.80
484;DHT22;228;48.922;12.198;2022-12-10T16:18:33;3.60;79.40
484;DHT22;228;48.922;12.198;2022-12-10T16:21:04;3.80;80.20
484;DHT22;228;48.922;12.198;2022-12-10T16:23:31;3.90;79.80
484;DHT22;228;48.922;12.198;2022-12-10T16:25:58;3.90;79.70
484;DHT22;228;48.922;12.198;2022-12-10T16:28:24;4.00;79.90
484;DHT22;228;48.922;12.198;2022-12-10T16:30:52;4.10;79.70
484;DHT22;228;48.922;12.198;2022-12-10T16:33:22;4.10;78.60
484;DHT22;228;48.922;12.198;2022-12-10T16:35:51;4.00;79.40
484;DHT22;228;48.922;12.198;2022-12-10T16:38:19;3.80;79.60
484;DHT22;228;48.922;12.198;2022-12-10T16:40:49;4.00;79.20
484;DHT22;228;48.922;12.198;2022-12-10T16:43:21;4.40;78.40
484;DHT22;228;48.922;12.198;2022-12-10T16:45:49;4.60;77.10
484;DHT22;228;48.922;12.198;2022-12-10T16:48:17;4.50;77.20
484;DHT22;228;48.922;12.198;2022-12-10T16:50:44;4.20;77.60
484;DHT22;228;48.922;12.198;2022-12-10T16:53:21;3.90;78.60
484;DHT22;228;48.922;12.198;2022-12-10T16:55:50;3.80;79.00
484;DHT22;228;48.922;12.198;2022-12-10T16:58:16;4.00;79.10
484;DHT22;228;48.922;12.198;2022-12-10T17:00:48;4.50;78.00
484;DHT22;228;48.922;12.198;2022-12-10T17:03:17;4.30;77.70
484;DHT22;228;48.922;12.198;2022-12-10T17:05:50;4.30;77.40
484;DHT22;228;48.922;12.198;2022-12-10T17:08:19;4.60;77.30
484;DHT22;228;48.922;12.198;2022-12-10T17:10:47;5.00;76.20
484;DHT22;228;48.922;12.198;2022-12-10T17:13:33;5.20;74.90
484;DHT22;228;48.922;12.198;2022-12-10T17:16:00;5.40;74.10
484;DHT22;228;48.922;12.198;2022-12-10T17:18:26;5.40;73.90
484;DHT22;228;48.922;12.198;2022-12-10T17:20:53;5.30;73.90
484;DHT22;228;48.922;12.198;2022-12-10T17:23:19;4.90;74.30
484;DHT22;228;48.922;12.198;2022-12-10T17:25:47;4.60;75.50
484;DHT22;228;48.922;12.198;2022-12-10T17:28:18;4.20;76.90
484;DHT22;228;48.922;12.198;2022-12-10T17:30:46;4.10;77.80
484;DHT22;228;48.922;12.198;2022-12-10T17:33:15;4.50;77.60
484;DHT22;228;48.922;12.198;2022-12-10T17:35:43;4.70;77.10
484;DHT22;228;48.922;12.198;2022-12-10T17:38:18;4.80;76.30
484;DHT22;228;48.922;12.198;2022-12-10T17:40:49;4.60;76.40
484;DHT22;228;48.922;12.198;2022-12-10T17:43:16;4.40;77.20
484;DHT22;228;48.922;12.198;2022-12-10T17:45:43;4.60;77.30
484;DHT22;228;48.922;12.198;2022-12-10T17:48:13;4.60;76.50
484;DHT22;228;48.922;12.198;2022-12-10T17:50:40;4.60;76.80
484;DHT22;228;48.922;12.198;2022-12-10T17:53:11;4.60;77.10
484;DHT22;228;48.922;12.198;2022-12-10T17:55:43;4.50;76.90
484;DHT22;228;48.922;12.198;2022-12-10T17:58:13;4.30;77.90
484;DHT22;228;48.922;12.198;2022-12-10T18:00:40;4.20;78.00
484;DHT22;228;48.922;12.198;2022-12-10T18:03:07;4.40;78.30
484;DHT22;228;48.922;12.198;2022-12-10T18:05:33;4.20;77.80
484;DHT22;228;48.922;12.198;2022-12-10T18:07:59;4.10;78.00
484;DHT22;228;48.922;12.198;2022-12-10T18:10:28;4.00;78.40
484;DHT22;228;48.922;12.198;2022-12-10T18:12:56;3.70;79.40
484;DHT22;228;48.922;12.198;2022-12-10T18:15:24;3.60;80.00
484;DHT22;228;48.922;12.198;2022-12-10T18:17:51;3.70;80.00
484;DHT22;228;48.922;12.198;2022-12-10T18:20:32;3.70;79.00
484;DHT22;228;48.922;12.198;2022-12-10T18:23:01;3.60;79.50
484;DHT22;228;48.922;12.198;2022-12-10T18:25:28;3.70;79.50
484;DHT22;228;48.922;12.198;2022-12-10T18:28:02;3.60;79.50
484;DHT22;228;48.922;12.198;2022-12-10T18:30:30;3.80;79.30
484;DHT22;228;48.922;12.198;2022-12-10T18:32:56;4.00;78.40
484;DHT22;228;48.922;12.198;2022-12-10T18:35:22;3.90;77.80
484;DHT22;228;48.922;12.198;2022-12-10T18:37:48;4.20;78.20
484;DHT22;228;48.922;12.198;2022-12-10T18:40:18;4.30;76.80
484;DHT22;228;48.922;12.198;2022-12-10T18:42:47;4.20;77.40
484;DHT22;228;48.922;12.198;2022-12-10T18:45:15;4.10;78.00
484;DHT22;228;48.922;12.198;2022-12-10T18:47:42;3.90;77.40
484;DHT22;228;48.922;12.198;2022-12-10T18:50:28;4.10;77.60
484;DHT22;228;48.922;12.198;2022-12-10T18:52:55;4.10;78.00
484;DHT22;228;48.922;12.198;2022-12-10T18:55:23;4.10;77.30
484;DHT22;228;48.922;12.198;2022-12-10T18:57:49;3.90;77.90